Terminal Aerodrome Forecast
Issued by NWS Wichita, KS

Home | Current Version | Previous Version | Text Only | Print | Product List | Glossary On
Versions: 1 2 3 4 5 6 7 8 9 10 11 12 13 14 15 16 17 18 19 20
000
FTUS43 KICT 302323
TAFICT
TAF
KICT 302323Z 3100/3124 32014KT P6SM BKN020
     FM310500 01005KT P6SM SCT030
     FM311100 04004KT P6SM BKN012
     FM311400 05005KT 5SM BR SCT008
     FM311700 07009KT P6SM SCT015
     FM312000 07010KT P6SM SCT120=

USA.gov is the U.S. government's official web portal to all federal, state and local government web resources and services.